Time;durP1;ratioP1;P1;durP2;ratioP2;P2;SDS_P1;SDS_P2;PMS_P1;PMS_P2;Temp;Humidity;BMP_temperature;BMP_pressure;BME280_temperature;BME280_humidity;BME280_pressure;Samples;Min_cycle;Max_cycle;Signal;HPM_P1;HPM_P2
2023/05/17 00:00:09;;;;;;;6.37;3.27;;;;;;;;;;4993944;28;20285;-86
2023/05/17 00:02:36;;;;;;;9.10;3.23;;;;;;;;;;4973912;28;20549;-83
2023/05/17 00:05:05;;;;;;;7.07;3.53;;;;;;;;;;5007686;28;20231;-88
2023/05/17 00:07:30;;;;;;;9.93;3.57;;;;;;;;;;4937987;28;20225;-86
2023/05/17 00:09:58;;;;;;;7.23;3.50;;;;;;;;;;4968686;28;20234;-83
2023/05/17 00:12:27;;;;;;;6.23;3.27;;;;;;;;;;5001029;28;20214;-86
2023/05/17 00:14:52;;;;;;;7.60;3.30;;;;;;;;;;4995821;28;20301;-85
2023/05/17 00:17:20;;;;;;;7.07;3.20;;;;;;;;;;4954697;28;20244;-85
2023/05/17 00:19:48;;;;;;;7.70;3.40;;;;;;;;;;4948301;28;20294;-86
2023/05/17 00:22:13;;;;;;;6.87;3.57;;;;;;;;;;4955364;28;20238;-85
2023/05/17 00:24:39;;;;;;;6.90;3.57;;;;;;;;;;4960376;28;20230;-86
2023/05/17 00:27:04;;;;;;;6.30;3.40;;;;;;;;;;4963033;28;20222;-85
2023/05/17 00:29:30;;;;;;;6.07;3.43;;;;;;;;;;4962007;28;20234;-86
2023/05/17 00:31:55;;;;;;;9.50;3.60;;;;;;;;;;4960188;28;20275;-84
2023/05/17 00:34:21;;;;;;;9.00;3.60;;;;;;;;;;4961103;28;20583;-84
2023/05/17 00:36:49;;;;;;;8.43;3.60;;;;;;;;;;4938716;28;20241;-84
2023/05/17 00:39:14;;;;;;;5.67;3.13;;;;;;;;;;4957139;28;20229;-84
2023/05/17 00:41:40;;;;;;;5.93;3.43;;;;;;;;;;4953473;28;20226;-87
2023/05/17 00:44:06;;;;;;;7.97;3.30;;;;;;;;;;4961117;28;20218;-86
2023/05/17 00:46:36;;;;;;;6.60;3.63;;;;;;;;;;4940984;28;20226;-84
2023/05/17 00:49:03;;;;;;;7.60;3.63;;;;;;;;;;4962778;28;20304;-84
2023/05/17 00:51:34;;;;;;;6.40;3.60;;;;;;;;;;4945454;28;20222;-85
2023/05/17 00:54:00;;;;;;;8.23;3.70;;;;;;;;;;4965709;28;20680;-85
2023/05/17 00:56:25;;;;;;;6.50;3.40;;;;;;;;;;4970446;28;20229;-86
2023/05/17 00:58:53;;;;;;;6.40;3.43;;;;;;;;;;4990657;28;20707;-82
2023/05/17 01:01:21;;;;;;;7.47;3.60;;;;;;;;;;4937625;28;20229;-82
2023/05/17 01:03:47;;;;;;;5.77;3.00;;;;;;;;;;4952730;28;20222;-83
2023/05/17 01:06:13;;;;;;;9.90;3.23;;;;;;;;;;4944037;28;20225;-84
2023/05/17 01:08:38;;;;;;;7.43;2.93;;;;;;;;;;4936181;28;20728;-84
2023/05/17 01:11:31;;;;;;;9.30;3.60;;;;;;;;;;4961544;28;20691;-85
2023/05/17 01:14:24;;;;;;;8.10;3.33;;;;;;;;;;4961061;28;20593;-86
2023/05/17 01:17:00;;;;;;;7.87;3.47;;;;;;;;;;4993863;28;20223;-87
2023/05/17 01:19:31;;;;;;;7.60;3.80;;;;;;;;;;4987965;28;20256;-88
2023/05/17 01:22:24;;;;;;;8.83;3.07;;;;;;;;;;5002119;28;20236;-86
2023/05/17 01:25:07;;;;;;;6.50;3.20;;;;;;;;;;4971311;28;20262;-85
2023/05/17 01:27:35;;;;;;;6.60;3.23;;;;;;;;;;4981406;28;20225;-87
2023/05/17 01:30:00;;;;;;;7.03;2.80;;;;;;;;;;4969267;28;20227;-84
2023/05/17 01:32:26;;;;;;;8.70;3.30;;;;;;;;;;4977088;28;20218;-85
2023/05/17 01:34:51;;;;;;;12.43;3.27;;;;;;;;;;4974869;28;20258;-86
2023/05/17 01:37:17;;;;;;;8.47;3.40;;;;;;;;;;4984757;28;20222;-85
2023/05/17 01:39:45;;;;;;;8.77;3.30;;;;;;;;;;4981248;28;20238;-84
2023/05/17 01:42:15;;;;;;;9.33;3.10;;;;;;;;;;4962043;28;20285;-85
2023/05/17 01:45:16;;;;;;;6.93;2.93;;;;;;;;;;4982525;28;20246;-84
2023/05/17 01:47:49;;;;;;;8.70;3.20;;;;;;;;;;5009886;28;20210;-84
2023/05/17 01:50:16;;;;;;;7.03;3.30;;;;;;;;;;4980230;28;20215;-86
2023/05/17 01:52:50;;;;;;;7.60;3.20;;;;;;;;;;4979672;28;20213;-86
2023/05/17 01:55:24;;;;;;;7.67;2.83;;;;;;;;;;5011307;28;20214;-85
2023/05/17 01:57:53;;;;;;;9.23;3.23;;;;;;;;;;4979949;28;20228;-86
2023/05/17 02:00:18;;;;;;;6.77;3.13;;;;;;;;;;4963820;28;20215;-86
2023/05/17 02:02:48;;;;;;;7.37;2.77;;;;;;;;;;4947225;28;20233;-88
2023/05/17 02:05:14;;;;;;;8.23;3.30;;;;;;;;;;5008004;28;20268;-85
2023/05/17 02:07:42;;;;;;;7.43;3.10;;;;;;;;;;4957781;28;20290;-87
2023/05/17 02:10:08;;;;;;;8.63;3.20;;;;;;;;;;4988335;28;20246;-86
2023/05/17 02:12:35;;;;;;;7.10;3.00;;;;;;;;;;4994722;28;20218;-87
2023/05/17 02:15:00;;;;;;;6.87;3.10;;;;;;;;;;4984853;28;20224;-87
2023/05/17 02:17:26;;;;;;;9.90;3.53;;;;;;;;;;4957913;28;20211;-87
2023/05/17 02:19:54;;;;;;;7.60;3.43;;;;;;;;;;4972355;28;20233;-86
2023/05/17 02:22:22;;;;;;;6.80;3.33;;;;;;;;;;4980160;28;20222;-85
2023/05/17 02:24:52;;;;;;;11.83;3.90;;;;;;;;;;4979715;28;20234;-87
2023/05/17 02:27:18;;;;;;;9.93;3.50;;;;;;;;;;4973858;28;20245;-86
2023/05/17 02:29:43;;;;;;;8.10;3.30;;;;;;;;;;4951770;28;20210;-86
2023/05/17 02:32:11;;;;;;;9.23;3.07;;;;;;;;;;4984975;28;20265;-84
2023/05/17 02:34:39;;;;;;;8.10;3.07;;;;;;;;;;4998464;28;20276;-85
2023/05/17 02:37:07;;;;;;;9.50;3.03;;;;;;;;;;4962562;28;20218;-83
2023/05/17 02:39:35;;;;;;;10.93;3.13;;;;;;;;;;5000073;28;20198;-84
2023/05/17 02:42:01;;;;;;;7.30;3.10;;;;;;;;;;4956638;28;20289;-85
2023/05/17 02:44:26;;;;;;;7.87;2.70;;;;;;;;;;4967360;28;20710;-87
2023/05/17 02:46:52;;;;;;;9.10;3.10;;;;;;;;;;4934954;28;20226;-86
2023/05/17 02:49:18;;;;;;;7.60;2.80;;;;;;;;;;4952166;28;20245;-87
2023/05/17 02:51:43;;;;;;;8.53;2.97;;;;;;;;;;5009256;28;20700;-88
2023/05/17 02:54:09;;;;;;;9.20;2.90;;;;;;;;;;4941046;28;20226;-87
2023/05/17 02:56:34;;;;;;;7.10;2.90;;;;;;;;;;4943513;28;20222;-88
2023/05/17 02:59:04;;;;;;;8.37;3.50;;;;;;;;;;4986180;28;20222;-86
2023/05/17 03:01:31;;;;;;;10.13;3.10;;;;;;;;;;4957403;28;20586;-85
2023/05/17 03:03:57;;;;;;;10.30;3.20;;;;;;;;;;4993864;28;20229;-87
2023/05/17 03:06:22;;;;;;;10.27;3.20;;;;;;;;;;4975460;28;20292;-88
2023/05/17 03:08:49;;;;;;;9.97;3.40;;;;;;;;;;4970920;28;21323;-88
2023/05/17 03:11:15;;;;;;;8.43;2.70;;;;;;;;;;4961159;28;20219;-86
2023/05/17 03:13:41;;;;;;;10.83;3.37;;;;;;;;;;4948012;28;20296;-87
2023/05/17 03:16:08;;;;;;;11.07;2.90;;;;;;;;;;4989107;28;20217;-86
2023/05/17 03:18:36;;;;;;;6.77;2.70;;;;;;;;;;4948980;28;20257;-87
2023/05/17 03:21:01;;;;;;;8.70;2.80;;;;;;;;;;4998932;28;20315;-87
2023/05/17 03:23:27;;;;;;;8.23;2.77;;;;;;;;;;4971567;28;20230;-88
2023/05/17 03:26:02;;;;;;;6.93;2.90;;;;;;;;;;4944507;28;20214;-86
2023/05/17 03:28:31;;;;;;;13.90;3.23;;;;;;;;;;4966528;28;20230;-88
2023/05/17 03:31:00;;;;;;;8.00;3.00;;;;;;;;;;5006445;28;20287;-87
2023/05/17 03:33:29;;;;;;;8.83;2.67;;;;;;;;;;5007596;28;20223;-87
2023/05/17 03:35:54;;;;;;;9.20;2.83;;;;;;;;;;4991794;28;20257;-87
2023/05/17 03:38:20;;;;;;;9.33;2.63;;;;;;;;;;4961774;28;20225;-86
2023/05/17 03:40:50;;;;;;;6.60;2.53;;;;;;;;;;5011498;28;20641;-88
2023/05/17 03:43:16;;;;;;;6.30;2.50;;;;;;;;;;4992284;28;20230;-88
2023/05/17 03:45:47;;;;;;;9.00;2.33;;;;;;;;;;4972463;28;20242;-86
2023/05/17 03:48:15;;;;;;;7.93;2.40;;;;;;;;;;4990938;28;20230;-87
2023/05/17 03:50:42;;;;;;;7.80;2.80;;;;;;;;;;4936261;28;20253;-87
2023/05/17 03:53:08;;;;;;;7.33;3.27;;;;;;;;;;4970271;28;20755;-87
2023/05/17 03:55:39;;;;;;;6.27;2.63;;;;;;;;;;4972461;28;20233;-86
2023/05/17 03:58:07;;;;;;;8.73;2.90;;;;;;;;;;4952718;28;20225;-87
2023/05/17 04:00:35;;;;;;;7.10;2.97;;;;;;;;;;4971688;28;20420;-86
2023/05/17 04:03:11;;;;;;;9.87;3.00;;;;;;;;;;4998858;28;20229;-87
2023/05/17 04:05:39;;;;;;;8.30;2.57;;;;;;;;;;4948873;28;20288;-86
2023/05/17 04:08:05;;;;;;;10.47;3.10;;;;;;;;;;4992845;28;20222;-87
2023/05/17 04:10:33;;;;;;;7.73;2.73;;;;;;;;;;4968211;28;20222;-86
2023/05/17 04:12:59;;;;;;;5.90;2.53;;;;;;;;;;4963441;28;20282;-87
2023/05/17 04:15:26;;;;;;;8.47;2.50;;;;;;;;;;4981533;28;20599;-86
2023/05/17 04:17:55;;;;;;;5.97;2.33;;;;;;;;;;4965259;28;20233;-86
2023/05/17 04:20:20;;;;;;;6.93;2.63;;;;;;;;;;4997751;28;20221;-86
2023/05/17 04:22:47;;;;;;;6.53;2.57;;;;;;;;;;4958046;28;20217;-87
2023/05/17 04:25:13;;;;;;;10.57;2.73;;;;;;;;;;4971583;28;20581;-85
2023/05/17 04:27:39;;;;;;;8.20;2.83;;;;;;;;;;4995702;28;20244;-85
2023/05/17 04:30:07;;;;;;;7.33;2.83;;;;;;;;;;4975399;28;20214;-86
2023/05/17 04:32:33;;;;;;;8.20;2.73;;;;;;;;;;4995089;28;20312;-86
2023/05/17 04:35:01;;;;;;;7.90;2.70;;;;;;;;;;4988214;28;20245;-87
2023/05/17 04:37:27;;;;;;;9.50;2.23;;;;;;;;;;4931779;28;20691;-88
2023/05/17 04:39:58;;;;;;;6.30;2.37;;;;;;;;;;4969439;28;20214;-86
2023/05/17 04:42:28;;;;;;;8.47;2.57;;;;;;;;;;4967175;28;20222;-87
2023/05/17 04:45:00;;;;;;;8.20;2.33;;;;;;;;;;4989400;28;20210;-87
2023/05/17 04:47:28;;;;;;;4.57;2.27;;;;;;;;;;4966467;28;20217;-86
2023/05/17 04:49:56;;;;;;;7.73;2.47;;;;;;;;;;4964999;28;20609;-85
2023/05/17 04:52:24;;;;;;;6.33;2.30;;;;;;;;;;4983427;28;20229;-86
2023/05/17 04:54:50;;;;;;;7.03;1.90;;;;;;;;;;4946125;28;20226;-88
2023/05/17 04:57:16;;;;;;;7.43;2.40;;;;;;;;;;4956747;28;20228;-87
2023/05/17 04:59:49;;;;;;;6.43;2.27;;;;;;;;;;4970197;28;20222;-86
2023/05/17 05:02:15;;;;;;;5.87;2.23;;;;;;;;;;4963807;28;20255;-86
2023/05/17 05:04:46;;;;;;;4.57;2.00;;;;;;;;;;4978742;28;20230;-87
2023/05/17 05:07:12;;;;;;;7.73;2.43;;;;;;;;;;4983922;28;20295;-86
2023/05/17 05:09:38;;;;;;;4.97;1.90;;;;;;;;;;4954286;28;20605;-88
2023/05/17 05:12:05;;;;;;;5.30;1.80;;;;;;;;;;4985935;28;20232;-87
2023/05/17 05:14:31;;;;;;;4.57;1.70;;;;;;;;;;4930326;28;20308;-86
2023/05/17 05:16:59;;;;;;;4.07;2.00;;;;;;;;;;5011145;28;20233;-88
2023/05/17 05:19:25;;;;;;;5.13;1.90;;;;;;;;;;4954072;28;20508;-86
2023/05/17 05:21:52;;;;;;;4.87;2.03;;;;;;;;;;4967297;28;20235;-86
2023/05/17 05:24:19;;;;;;;4.50;1.70;;;;;;;;;;4950344;28;20233;-88
2023/05/17 05:26:48;;;;;;;5.57;1.67;;;;;;;;;;4931497;28;20704;-84
2023/05/17 05:29:17;;;;;;;8.70;2.03;;;;;;;;;;4959859;28;20287;-86
2023/05/17 05:31:43;;;;;;;4.73;1.73;;;;;;;;;;4976551;28;20246;-85
2023/05/17 05:34:12;;;;;;;4.63;1.80;;;;;;;;;;4974737;28;20218;-84
2023/05/17 05:36:38;;;;;;;4.70;2.07;;;;;;;;;;4988052;28;20221;-86
2023/05/17 05:39:03;;;;;;;5.43;2.27;;;;;;;;;;4939804;28;20229;-86
2023/05/17 05:41:31;;;;;;;5.00;1.87;;;;;;;;;;4940506;28;20826;-87
2023/05/17 05:43:57;;;;;;;4.83;2.10;;;;;;;;;;4970240;28;20285;-89
2023/05/17 05:46:23;;;;;;;4.90;1.90;;;;;;;;;;4937936;28;20747;-84
2023/05/17 05:48:51;;;;;;;5.67;1.93;;;;;;;;;;4954559;28;20234;-87
2023/05/17 05:51:18;;;;;;;6.83;1.90;;;;;;;;;;4953258;28;20225;-87
2023/05/17 05:53:44;;;;;;;8.83;2.10;;;;;;;;;;4970370;28;20248;-85
2023/05/17 05:56:12;;;;;;;6.50;2.20;;;;;;;;;;4938586;28;20214;-85
2023/05/17 05:58:43;;;;;;;7.47;2.20;;;;;;;;;;4984843;28;20230;-85
2023/05/17 06:01:12;;;;;;;5.63;1.97;;;;;;;;;;4984667;28;20282;-85
2023/05/17 06:03:37;;;;;;;5.73;1.93;;;;;;;;;;5010945;23;20228;-76
2023/05/17 06:06:05;;;;;;;9.03;2.00;;;;;;;;;;4987264;28;20237;-77
2023/05/17 06:08:31;;;;;;;7.53;2.43;;;;;;;;;;5001150;23;20522;-86
2023/05/17 06:10:56;;;;;;;4.67;1.83;;;;;;;;;;4958655;28;20233;-87
2023/05/17 06:13:22;;;;;;;7.13;2.00;;;;;;;;;;4951471;28;20224;-86
2023/05/17 06:15:47;;;;;;;5.77;2.27;;;;;;;;;;4944883;28;20213;-87
2023/05/17 06:18:15;;;;;;;4.73;2.40;;;;;;;;;;4960331;28;20288;-87
2023/05/17 06:20:43;;;;;;;8.23;1.73;;;;;;;;;;4957825;28;20213;-88
2023/05/17 06:23:08;;;;;;;6.43;2.07;;;;;;;;;;4960812;28;20244;-87
2023/05/17 06:25:34;;;;;;;6.40;2.13;;;;;;;;;;4947635;28;20229;-85
2023/05/17 06:28:03;;;;;;;7.60;1.70;;;;;;;;;;4975745;28;20241;-85
2023/05/17 06:30:29;;;;;;;4.33;1.73;;;;;;;;;;4978450;28;20212;-85
2023/05/17 06:32:55;;;;;;;4.60;1.90;;;;;;;;;;4961238;28;20217;-83
2023/05/17 06:35:20;;;;;;;4.43;1.77;;;;;;;;;;4963210;28;20617;-86
2023/05/17 06:37:46;;;;;;;9.30;2.07;;;;;;;;;;4975849;28;20232;-87
2023/05/17 06:40:15;;;;;;;5.47;1.70;;;;;;;;;;4943203;28;20225;-87
2023/05/17 06:42:40;;;;;;;3.97;1.70;;;;;;;;;;4944907;28;20255;-85
2023/05/17 06:45:06;;;;;;;4.20;1.50;;;;;;;;;;4954987;28;20702;-87
2023/05/17 06:47:39;;;;;;;7.80;2.27;;;;;;;;;;4960571;28;20217;-87
2023/05/17 06:50:08;;;;;;;7.53;2.20;;;;;;;;;;4975842;28;20214;-88
2023/05/17 06:52:36;;;;;;;4.40;1.83;;;;;;;;;;4957883;28;20229;-84
2023/05/17 06:55:01;;;;;;;6.77;2.50;;;;;;;;;;4946294;28;20211;-89
2023/05/17 06:57:27;;;;;;;5.70;2.20;;;;;;;;;;4959430;28;20209;-88
2023/05/17 06:59:57;;;;;;;5.13;2.30;;;;;;;;;;4960217;28;20741;-85
2023/05/17 07:02:22;;;;;;;6.87;2.53;;;;;;;;;;4978260;28;20283;-87
2023/05/17 07:04:50;;;;;;;6.40;2.07;;;;;;;;;;4964146;28;20237;-88
2023/05/17 07:07:16;;;;;;;5.70;2.17;;;;;;;;;;4943528;28;20698;-85
2023/05/17 07:09:43;;;;;;;7.60;2.10;;;;;;;;;;4945257;28;20229;-89
2023/05/17 07:12:09;;;;;;;5.23;2.20;;;;;;;;;;4963079;28;20233;-87
2023/05/17 07:14:35;;;;;;;7.37;2.20;;;;;;;;;;4964233;28;20218;-87
2023/05/17 07:17:05;;;;;;;9.10;4.57;;;;;;;;;;4978195;28;20683;-87
2023/05/17 07:19:31;;;;;;;6.10;2.30;;;;;;;;;;4947893;28;20233;-89
2023/05/17 07:21:59;;;;;;;7.63;2.30;;;;;;;;;;4961906;28;20225;-88
2023/05/17 07:24:27;;;;;;;6.33;1.90;;;;;;;;;;4958883;28;20232;-87
2023/05/17 07:26:55;;;;;;;3.07;1.70;;;;;;;;;;4949575;28;20225;-87
2023/05/17 07:29:24;;;;;;;3.37;1.60;;;;;;;;;;4963556;28;20218;-85
2023/05/17 07:31:52;;;;;;;3.97;1.73;;;;;;;;;;4959906;28;20245;-85
2023/05/17 07:34:17;;;;;;;4.10;1.83;;;;;;;;;;4943757;28;20224;-88
2023/05/17 07:36:45;;;;;;;3.93;1.60;;;;;;;;;;4942241;28;20221;-86
2023/05/17 07:39:13;;;;;;;5.13;1.47;;;;;;;;;;4976115;28;20221;-87
2023/05/17 07:41:43;;;;;;;2.60;1.23;;;;;;;;;;4945715;28;20217;-87
2023/05/17 07:44:09;;;;;;;8.37;1.57;;;;;;;;;;4966960;28;20235;-86
2023/05/17 07:46:39;;;;;;;3.03;1.47;;;;;;;;;;4971618;28;20226;-86
2023/05/17 07:49:07;;;;;;;4.83;1.47;;;;;;;;;;4972580;28;20222;-87
2023/05/17 07:51:33;;;;;;;3.07;1.30;;;;;;;;;;4944460;28;20213;-85
2023/05/17 07:54:01;;;;;;;3.47;1.50;;;;;;;;;;4963044;28;20236;-85
2023/05/17 07:56:28;;;;;;;4.60;1.57;;;;;;;;;;4945958;28;20225;-84
2023/05/17 07:58:56;;;;;;;2.83;1.30;;;;;;;;;;4973301;28;20229;-85
2023/05/17 08:01:27;;;;;;;6.90;1.63;;;;;;;;;;4983471;28;20245;-86
2023/05/17 08:03:53;;;;;;;3.47;1.47;;;;;;;;;;4976440;28;20227;-90
2023/05/17 08:06:21;;;;;;;3.70;1.53;;;;;;;;;;4963998;28;20263;-88
2023/05/17 08:08:47;;;;;;;5.17;1.63;;;;;;;;;;4980692;28;20209;-89
2023/05/17 08:11:12;;;;;;;4.73;1.40;;;;;;;;;;4969783;28;20214;-87
2023/05/17 08:13:38;;;;;;;3.87;1.50;;;;;;;;;;4944742;28;20245;-86
2023/05/17 08:16:06;;;;;;;3.17;1.43;;;;;;;;;;4958466;28;20221;-85
2023/05/17 08:18:32;;;;;;;4.57;1.57;;;;;;;;;;4960221;28;20270;-87
2023/05/17 08:20:58;;;;;;;4.30;1.40;;;;;;;;;;4959393;28;20686;-85
2023/05/17 08:23:24;;;;;;;3.13;1.57;;;;;;;;;;4961872;28;20232;-88
2023/05/17 08:25:51;;;;;;;4.87;1.60;;;;;;;;;;4972435;28;20221;-84
2023/05/17 08:28:22;;;;;;;6.13;1.70;;;;;;;;;;4990970;28;20210;-85
2023/05/17 08:30:50;;;;;;;4.70;1.87;;;;;;;;;;4946328;28;20228;-89
2023/05/17 08:33:16;;;;;;;3.10;1.60;;;;;;;;;;4962068;28;20229;-86
2023/05/17 08:35:44;;;;;;;2.67;1.33;;;;;;;;;;4945625;28;20317;-86
2023/05/17 08:38:12;;;;;;;2.83;1.30;;;;;;;;;;4947011;28;20233;-85
2023/05/17 08:40:43;;;;;;;3.27;1.37;;;;;;;;;;4960160;28;20304;-87
2023/05/17 08:43:10;;;;;;;3.63;1.43;;;;;;;;;;4978227;28;20233;-86
2023/05/17 08:45:36;;;;;;;2.87;1.53;;;;;;;;;;4977341;28;20229;-83
2023/05/17 08:48:04;;;;;;;3.80;1.30;;;;;;;;;;4960319;28;20228;-88
2023/05/17 08:50:33;;;;;;;5.37;1.70;;;;;;;;;;4948004;28;20237;-89
2023/05/17 08:52:59;;;;;;;5.73;2.00;;;;;;;;;;4945345;28;20225;-87
2023/05/17 08:55:26;;;;;;;4.50;1.70;;;;;;;;;;4945634;28;20248;-84
2023/05/17 08:57:55;;;;;;;5.10;1.50;;;;;;;;;;4946862;28;20282;-88
2023/05/17 09:00:21;;;;;;;3.40;1.43;;;;;;;;;;4978315;28;20699;-84
2023/05/17 09:02:47;;;;;;;4.53;1.57;;;;;;;;;;4963335;28;20221;-87
2023/05/17 09:05:15;;;;;;;3.13;1.47;;;;;;;;;;4976257;28;20225;-87
2023/05/17 09:07:43;;;;;;;4.90;1.80;;;;;;;;;;4959007;28;20231;-85
2023/05/17 09:10:12;;;;;;;3.77;1.67;;;;;;;;;;4961468;28;20210;-87
2023/05/17 09:12:40;;;;;;;4.40;1.87;;;;;;;;;;4958717;28;20754;-88
2023/05/17 09:15:19;;;;;;;4.77;1.60;;;;;;;;;;4962927;28;20225;-87
2023/05/17 09:17:54;;;;;;;5.63;2.10;;;;;;;;;;4975455;28;20225;-89
2023/05/17 09:20:23;;;;;;;3.40;1.70;;;;;;;;;;4980856;28;20253;-87
2023/05/17 09:22:49;;;;;;;6.30;1.90;;;;;;;;;;4962724;28;20281;-87
2023/05/17 09:25:19;;;;;;;4.10;1.50;;;;;;;;;;4978005;28;20260;-88
2023/05/17 09:27:44;;;;;;;5.13;1.70;;;;;;;;;;4960107;28;20289;-88
2023/05/17 09:30:10;;;;;;;3.50;1.30;;;;;;;;;;4947013;28;20240;-89
2023/05/17 09:32:42;;;;;;;3.60;1.37;;;;;;;;;;4977035;28;20221;-89
2023/05/17 09:35:10;;;;;;;4.90;1.50;;;;;;;;;;4977939;28;20960;-86
2023/05/17 09:37:39;;;;;;;3.60;1.43;;;;;;;;;;4973029;28;20217;-88
2023/05/17 09:40:05;;;;;;;5.20;1.60;;;;;;;;;;4960351;28;20221;-88
2023/05/17 09:42:38;;;;;;;4.33;1.47;;;;;;;;;;4944883;28;20518;-85
2023/05/17 09:45:05;;;;;;;3.43;1.57;;;;;;;;;;4944299;28;20226;-84
2023/05/17 09:47:34;;;;;;;4.57;1.40;;;;;;;;;;4962542;28;20237;-87
2023/05/17 09:50:02;;;;;;;2.53;1.30;;;;;;;;;;4977187;28;20218;-88
2023/05/17 09:52:30;;;;;;;2.60;1.30;;;;;;;;;;4956821;28;20222;-87
2023/05/17 09:55:26;;;;;;;3.23;1.00;;;;;;;;;;4943789;28;20222;-85
2023/05/17 09:57:56;;;;;;;4.20;1.40;;;;;;;;;;4991040;28;20224;-88
2023/05/17 10:00:22;;;;;;;2.33;1.23;;;;;;;;;;4944420;28;20225;-87
2023/05/17 10:02:49;;;;;;;2.47;1.20;;;;;;;;;;4990931;28;20283;-85
2023/05/17 10:05:16;;;;;;;3.03;1.33;;;;;;;;;;4973689;28;20694;-86
2023/05/17 10:07:42;;;;;;;3.77;1.50;;;;;;;;;;4957140;28;20600;-85
2023/05/17 10:10:11;;;;;;;2.63;1.23;;;;;;;;;;4967804;28;20210;-84
2023/05/17 10:12:38;;;;;;;3.03;1.37;;;;;;;;;;4958222;28;20299;-88
2023/05/17 10:15:03;;;;;;;2.70;1.27;;;;;;;;;;4941717;28;20526;-86
2023/05/17 10:17:34;;;;;;;3.07;1.43;;;;;;;;;;4941894;28;20229;-86
2023/05/17 10:20:00;;;;;;;3.35;1.30;;;;;;;;;;4969054;28;20286;-88
2023/05/17 10:22:27;;;;;;;2.35;1.17;;;;;;;;;;4961044;28;20284;-87
2023/05/17 10:24:54;;;;;;;2.73;1.27;;;;;;;;;;4939249;28;21069;-87
2023/05/17 10:27:22;;;;;;;4.77;1.53;;;;;;;;;;4954818;28;20224;-87
2023/05/17 10:29:51;;;;;;;3.40;1.60;;;;;;;;;;4934420;28;20233;-86
2023/05/17 10:32:25;;;;;;;4.53;1.70;;;;;;;;;;4977846;28;20312;-87
2023/05/17 10:34:51;;;;;;;2.87;1.30;;;;;;;;;;4942445;28;20237;-87
2023/05/17 10:37:17;;;;;;;3.23;1.67;;;;;;;;;;4984919;28;20275;-87
2023/05/17 10:39:45;;;;;;;2.83;1.20;;;;;;;;;;4938529;28;20281;-88
2023/05/17 10:42:11;;;;;;;3.85;1.27;;;;;;;;;;4952759;28;20283;-87
2023/05/17 10:44:37;;;;;;;3.20;1.57;;;;;;;;;;4968153;28;20234;-86
2023/05/17 10:47:03;;;;;;;3.37;1.10;;;;;;;;;;4941382;28;20291;-85
2023/05/17 10:49:32;;;;;;;3.47;1.20;;;;;;;;;;4967251;28;20229;-86
2023/05/17 10:52:18;;;;;;;1.57;1.10;;;;;;;;;;4961417;28;20558;-88
2023/05/17 10:54:50;;;;;;;2.00;0.97;;;;;;;;;;4977595;28;20211;-87
2023/05/17 10:57:23;;;;;;;4.67;1.00;;;;;;;;;;4953367;28;20310;-85
2023/05/17 10:59:56;;;;;;;1.93;1.10;;;;;;;;;;4974042;28;20720;-86
2023/05/17 11:02:22;;;;;;;4.37;1.30;;;;;;;;;;4977134;28;20229;-86
2023/05/17 11:04:55;;;;;;;2.13;1.03;;;;;;;;;;4944997;28;20638;-87
2023/05/17 11:07:28;;;;;;;2.30;1.00;;;;;;;;;;4976200;28;20312;-86
2023/05/17 11:10:02;;;;;;;2.25;1.00;;;;;;;;;;4992160;28;20225;-87
2023/05/17 11:12:38;;;;;;;2.72;1.23;;;;;;;;;;4980536;28;21614;-86
2023/05/17 11:15:13;;;;;;;3.45;1.27;;;;;;;;;;4981172;28;20229;-87
2023/05/17 11:17:42;;;;;;;2.23;1.20;;;;;;;;;;4964563;28;20223;-87
2023/05/17 11:20:11;;;;;;;3.53;1.33;;;;;;;;;;4977534;28;20623;-87
2023/05/17 11:22:41;;;;;;;4.93;1.50;;;;;;;;;;4963530;28;20225;-86
2023/05/17 11:25:08;;;;;;;3.87;1.40;;;;;;;;;;4979238;28;20221;-88
2023/05/17 11:27:52;;;;;;;2.40;1.30;;;;;;;;;;4963945;28;20367;-85
2023/05/17 11:30:20;;;;;;;3.17;1.60;;;;;;;;;;4961677;28;20248;-86
2023/05/17 11:32:50;;;;;;;3.37;1.43;;;;;;;;;;4994034;28;20230;-86
2023/05/17 11:35:22;;;;;;;4.25;1.50;;;;;;;;;;4945243;28;20280;-86
2023/05/17 11:37:50;;;;;;;2.95;1.70;;;;;;;;;;4976711;28;20232;-86
2023/05/17 11:40:23;;;;;;;2.70;1.40;;;;;;;;;;4964456;28;20220;-85
2023/05/17 11:42:50;;;;;;;2.57;1.20;;;;;;;;;;4961977;28;20321;-83
2023/05/17 11:45:16;;;;;;;3.57;1.40;;;;;;;;;;4963504;28;20228;-85
2023/05/17 11:47:41;;;;;;;3.43;1.20;;;;;;;;;;4975300;28;20218;-84
2023/05/17 11:50:07;;;;;;;2.63;1.10;;;;;;;;;;4959526;28;20650;-83
2023/05/17 11:52:33;;;;;;;3.40;0.90;;;;;;;;;;4977094;28;20234;-86
2023/05/17 11:54:58;;;;;;;1.50;0.80;;;;;;;;;;4943774;28;20289;-82
2023/05/17 11:57:29;;;;;;;1.37;0.90;;;;;;;;;;4945424;28;20228;-83
2023/05/17 12:00:02;;;;;;;2.88;1.30;;;;;;;;;;4961344;28;20667;-84
2023/05/17 12:02:38;;;;;;;1.83;1.10;;;;;;;;;;4979986;28;20236;-84
2023/05/17 12:05:03;;;;;;;2.33;1.15;;;;;;;;;;4968847;28;20535;-83
2023/05/17 12:07:31;;;;;;;2.33;0.90;;;;;;;;;;4960126;28;20278;-84
2023/05/17 12:09:56;;;;;;;2.20;1.10;;;;;;;;;;4960153;28;20263;-83
2023/05/17 12:12:25;;;;;;;1.95;0.98;;;;;;;;;;4960390;28;21287;-85
2023/05/17 12:14:51;;;;;;;3.33;1.20;;;;;;;;;;4975521;28;20217;-86
2023/05/17 12:17:26;;;;;;;2.17;1.38;;;;;;;;;;4985197;28;20337;-87
2023/05/17 12:19:52;;;;;;;3.50;1.17;;;;;;;;;;4949296;28;20248;-87
2023/05/17 12:22:18;;;;;;;3.00;1.37;;;;;;;;;;4980411;28;20225;-80
2023/05/17 12:24:44;;;;;;;2.30;1.30;;;;;;;;;;4976407;28;20241;-79
2023/05/17 12:27:09;;;;;;;2.47;1.20;;;;;;;;;;4943416;28;20230;-81
2023/05/17 12:29:35;;;;;;;2.60;1.20;;;;;;;;;;4964855;28;20780;-78
2023/05/17 12:32:01;;;;;;;3.27;1.43;;;;;;;;;;4965329;28;20232;-81
2023/05/17 12:34:29;;;;;;;3.00;1.60;;;;;;;;;;4974149;28;20229;-79
2023/05/17 12:36:55;;;;;;;2.65;1.25;;;;;;;;;;4971089;28;20706;-80
2023/05/17 12:39:23;;;;;;;3.00;1.30;;;;;;;;;;4992264;28;20221;-79
2023/05/17 12:41:52;;;;;;;2.27;1.13;;;;;;;;;;4970179;28;20719;-81
2023/05/17 12:44:23;;;;;;;2.17;1.00;;;;;;;;;;4972570;28;20316;-81
2023/05/17 12:46:52;;;;;;;3.03;1.17;;;;;;;;;;4961250;28;20300;-82
2023/05/17 12:49:20;;;;;;;4.23;1.30;;;;;;;;;;4969429;28;20294;-81
2023/05/17 12:51:45;;;;;;;1.53;0.83;;;;;;;;;;4967309;28;20226;-81
2023/05/17 12:54:17;;;;;;;1.17;0.90;;;;;;;;;;4954590;28;20218;-80
2023/05/17 12:56:43;;;;;;;2.23;1.00;;;;;;;;;;4973269;28;20281;-79
2023/05/17 12:59:12;;;;;;;1.20;0.82;;;;;;;;;;4950606;28;20264;-81
2023/05/17 13:01:44;;;;;;;2.65;1.20;;;;;;;;;;4969370;28;20236;-80
2023/05/17 13:04:10;;;;;;;3.50;1.00;;;;;;;;;;4958333;28;20309;-81
2023/05/17 13:06:50;;;;;;;3.07;1.17;;;;;;;;;;4966897;28;20214;-79
2023/05/17 13:09:17;;;;;;;3.47;1.40;;;;;;;;;;5004643;28;20220;-80
2023/05/17 13:11:48;;;;;;;2.97;1.10;;;;;;;;;;4938364;28;20222;-82
2023/05/17 13:14:14;;;;;;;3.33;1.50;;;;;;;;;;4957744;28;20770;-82
2023/05/17 13:16:39;;;;;;;2.43;1.47;;;;;;;;;;4958034;28;20222;-81
2023/05/17 13:19:16;;;;;;;3.60;1.70;;;;;;;;;;4970088;28;20280;-83
2023/05/17 13:21:42;;;;;;;6.07;1.67;;;;;;;;;;4974358;28;20221;-83
2023/05/17 13:24:08;;;;;;;2.92;1.40;;;;;;;;;;4968009;28;20233;-81
2023/05/17 13:26:34;;;;;;;2.60;1.30;;;;;;;;;;4981350;28;20250;-82
2023/05/17 13:29:00;;;;;;;3.10;1.50;;;;;;;;;;4955245;28;20606;-80
2023/05/17 13:31:25;;;;;;;3.10;1.40;;;;;;;;;;4974881;28;20574;-84
2023/05/17 13:33:51;;;;;;;4.90;1.50;;;;;;;;;;4967680;28;20226;-82
2023/05/17 13:36:16;;;;;;;4.93;1.60;;;;;;;;;;4949334;28;20245;-82
2023/05/17 13:38:42;;;;;;;2.77;1.37;;;;;;;;;;4955489;28;20228;-82
2023/05/17 13:41:08;;;;;;;2.63;1.20;;;;;;;;;;4938850;28;20229;-83
2023/05/17 13:43:36;;;;;;;3.60;1.37;;;;;;;;;;4953939;28;20284;-81
2023/05/17 13:46:02;;;;;;;2.90;1.30;;;;;;;;;;4965416;28;20242;-83
2023/05/17 13:48:28;;;;;;;2.10;1.25;;;;;;;;;;4981045;28;20225;-82
2023/05/17 13:50:57;;;;;;;2.97;1.50;;;;;;;;;;4954001;28;20320;-83
2023/05/17 13:53:22;;;;;;;2.00;1.03;;;;;;;;;;4952289;28;20225;-81
2023/05/17 13:55:50;;;;;;;1.80;1.00;;;;;;;;;;4955389;28;20317;-81
2023/05/17 13:58:16;;;;;;;2.13;1.27;;;;;;;;;;4948387;28;20327;-80
2023/05/17 14:00:43;;;;;;;2.25;1.23;;;;;;;;;;4997435;28;20222;-80
2023/05/17 14:03:10;;;;;;;2.95;1.60;;;;;;;;;;4950606;28;20265;-79
2023/05/17 14:05:35;;;;;;;4.03;1.38;;;;;;;;;;4973513;28;20237;-80
2023/05/17 14:08:02;;;;;;;3.43;1.00;;;;;;;;;;4967731;28;20229;-79
2023/05/17 14:10:30;;;;;;;2.05;1.13;;;;;;;;;;4949539;28;20221;-80
2023/05/17 14:12:55;;;;;;;2.92;1.20;;;;;;;;;;4970256;28;20292;-78
2023/05/17 14:15:26;;;;;;;3.07;1.20;;;;;;;;;;4987651;28;20217;-82
2023/05/17 14:17:53;;;;;;;5.70;1.33;;;;;;;;;;4954469;28;20664;-80
2023/05/17 14:20:22;;;;;;;2.33;1.13;;;;;;;;;;4955236;28;20217;-81
2023/05/17 14:22:47;;;;;;;2.37;1.40;;;;;;;;;;4978150;28;20696;-81
2023/05/17 14:25:13;;;;;;;3.53;1.33;;;;;;;;;;4972432;28;20245;-82
2023/05/17 14:27:39;;;;;;;4.13;1.40;;;;;;;;;;4940871;28;20222;-80
2023/05/17 14:30:05;;;;;;;5.82;1.50;;;;;;;;;;4970625;28;20228;-79
2023/05/17 14:32:31;;;;;;;3.75;1.50;;;;;;;;;;4957725;28;20289;-81
2023/05/17 14:34:59;;;;;;;2.13;1.42;;;;;;;;;;5000192;28;20226;-80
2023/05/17 14:37:24;;;;;;;2.65;1.27;;;;;;;;;;4990196;28;20597;-81
2023/05/17 14:39:50;;;;;;;2.58;1.20;;;;;;;;;;4976590;28;20228;-79
2023/05/17 14:42:15;;;;;;;2.45;1.20;;;;;;;;;;4980779;28;20221;-78
2023/05/17 14:44:41;;;;;;;2.03;1.10;;;;;;;;;;4974249;28;20237;-82
2023/05/17 14:47:07;;;;;;;2.75;1.27;;;;;;;;;;5006640;28;20237;-79